Terminal Aerodrome Forecast
Issued by NWS Blacksburg, VA

Home | Current Version | Previous Version | Text Only | Print | Product List | Glossary On
Versions: 1 2 3 4 5 6 7 8 9 10 11 12 13 14 15 16 17 18 19 20 21 22 23 24 25
525
FTUS41 KRNK 141722
TAFROA
TAF
KROA 141722Z 1418/1518 35006KT P6SM SCT080 BKN250
     FM141900 12005KT P6SM OVC080
     FM150000 14005KT 6SM -SN BR OVC020
     FM150500 14006KT 2SM -SN BR OVC009
     FM151200 14004KT 4SM -SN BR OVC007
     FM151500 18002KT 1 1/2SM -FZRAPL BR OVC004=

USA.gov is the U.S. government's official web portal to all federal, state and local government web resources and services.